createdAt,value
2018-03-24T00:00:00.611Z,42.35
2018-03-24T00:02:28.425Z,42.80
2018-03-24T00:04:56.221Z,42.90
2018-03-24T00:07:24.111Z,42.75
2018-03-24T00:09:51.898Z,43.30
2018-03-24T00:12:19.695Z,42.40
2018-03-24T00:14:48.211Z,42.08
2018-03-24T00:17:16.075Z,43.10
2018-03-24T00:19:43.827Z,42.67
2018-03-24T00:22:11.667Z,43.75
2018-03-24T00:24:40.183Z,43.45
2018-03-24T00:27:07.992Z,42.05
2018-03-24T00:29:35.771Z,43.22
2018-03-24T00:32:03.540Z,43.47
2018-03-24T00:34:32.056Z,43.42
2018-03-24T00:36:59.917Z,42.90
2018-03-24T00:39:27.826Z,43.53
2018-03-24T00:41:55.625Z,42.50
2018-03-24T00:44:24.199Z,42.40
2018-03-24T00:46:52.731Z,42.72
2018-03-24T00:49:20.478Z,43.00
2018-03-24T00:51:48.263Z,42.58
2018-03-24T00:54:16.028Z,42.13
2018-03-24T00:56:43.881Z,42.65
2018-03-24T00:59:11.704Z,42.75
2018-03-24T01:01:40.316Z,42.80
2018-03-24T01:04:08.123Z,42.30
2018-03-24T01:06:35.940Z,43.53
2018-03-24T01:09:03.902Z,41.72
2018-03-24T01:11:32.436Z,43.80
2018-03-24T01:14:00.218Z,42.58
2018-03-24T01:16:28.122Z,42.67
2018-03-24T01:18:55.873Z,42.42
2018-03-24T01:21:24.423Z,43.10
2018-03-24T01:23:52.302Z,42.70
2018-03-24T01:26:20.835Z,41.83
2018-03-24T01:28:48.697Z,42.55
2018-03-24T01:31:16.492Z,42.53
2018-03-24T01:33:44.297Z,42.67
2018-03-24T01:36:12.870Z,42.97
2018-03-24T01:38:41.437Z,42.55
2018-03-24T01:41:09.235Z,42.78
2018-03-24T01:43:37.007Z,42.72
2018-03-24T01:46:04.852Z,43.03
2018-03-24T01:48:33.597Z,43.85
2018-03-24T01:51:01.392Z,43.08
2018-03-24T01:53:41.861Z,44.30
2018-03-24T01:56:10.418Z,42.42
2018-03-24T01:58:38.355Z,42.88
2018-03-24T02:01:06.157Z,43.33
2018-03-24T02:03:34.135Z,44.08
2018-03-24T02:06:02.693Z,42.25
2018-03-24T02:08:30.460Z,42.38
2018-03-24T02:10:58.264Z,42.70
2018-03-24T02:13:26.801Z,43.03
2018-03-24T02:15:54.675Z,42.58
2018-03-24T02:18:22.455Z,42.97
2018-03-24T02:20:51.037Z,41.65
2018-03-24T02:23:18.795Z,42.35
2018-03-24T02:25:46.608Z,41.25
2018-03-24T02:28:14.389Z,42.40
2018-03-24T02:30:42.197Z,41.70
2018-03-24T02:33:10.753Z,42.05
2018-03-24T02:35:38.545Z,42.00
2018-03-24T02:38:07.087Z,41.60
2018-03-24T02:40:34.845Z,41.97
2018-03-24T02:43:02.648Z,42.30
2018-03-24T02:45:30.495Z,42.35
2018-03-24T02:47:58.253Z,42.13
2018-03-24T02:50:26.124Z,41.72
2018-03-24T02:52:53.884Z,42.83
2018-03-24T02:55:53.201Z,41.67
2018-03-24T02:58:41.787Z,42.03
2018-03-24T03:01:09.576Z,43.17
2018-03-24T03:03:37.362Z,42.72
2018-03-24T03:06:05.170Z,42.70
2018-03-24T03:08:33.741Z,42.88
2018-03-24T03:11:02.262Z,42.03
2018-03-24T03:13:30.076Z,43.13
2018-03-24T03:15:57.984Z,43.03
2018-03-24T03:18:25.785Z,42.85
2018-03-24T03:20:53.580Z,43.05
2018-03-24T03:23:21.353Z,42.03
2018-03-24T03:25:49.908Z,42.25
2018-03-24T03:28:17.709Z,42.10
2018-03-24T03:30:49.632Z,43.60
2018-03-24T03:33:17.415Z,42.20
2018-03-24T03:35:45.180Z,41.37
2018-03-24T03:38:13.738Z,42.13
2018-03-24T03:40:41.538Z,42.75
2018-03-24T03:43:10.051Z,41.65
2018-03-24T03:45:37.853Z,41.78
2018-03-24T03:48:05.695Z,42.30
2018-03-24T03:50:33.476Z,43.20
2018-03-24T03:53:01.260Z,43.65
2018-03-24T03:55:29.106Z,43.10
2018-03-24T03:57:56.887Z,42.90
2018-03-24T04:00:24.667Z,42.28
2018-03-24T04:02:53.190Z,41.75
2018-03-24T04:05:21.010Z,42.60
2018-03-24T04:07:49.615Z,41.97
2018-03-24T04:10:17.389Z,41.85
2018-03-24T04:12:45.151Z,43.08
2018-03-24T04:15:12.973Z,42.00
2018-03-24T04:17:40.751Z,42.83
2018-03-24T04:20:09.430Z,41.85
2018-03-24T04:22:37.981Z,42.17
2018-03-24T04:25:05.903Z,43.33
2018-03-24T04:27:33.651Z,42.60
2018-03-24T04:30:02.244Z,43.97
2018-03-24T04:32:30.871Z,43.80
2018-03-24T04:34:58.694Z,42.13
2018-03-24T04:37:26.555Z,42.47
2018-03-24T04:39:55.096Z,42.45
2018-03-24T04:42:22.847Z,42.03
2018-03-24T04:44:50.726Z,42.67
2018-03-24T04:47:18.569Z,42.92
2018-03-24T04:49:46.457Z,43.35
2018-03-24T04:52:15.000Z,43.15
2018-03-24T04:54:42.811Z,43.38
2018-03-24T04:57:10.608Z,43.10
2018-03-24T04:59:39.153Z,43.08
2018-03-24T05:02:06.959Z,43.72
2018-03-24T05:04:34.734Z,46.70
2018-03-24T05:07:02.503Z,45.70
2018-03-24T05:09:30.262Z,45.60
2018-03-24T05:11:58.069Z,46.05
2018-03-24T05:14:26.656Z,46.28
2018-03-24T05:16:54.427Z,45.42
2018-03-24T05:19:22.196Z,44.47
2018-03-24T05:21:50.019Z,45.97
2018-03-24T05:24:17.812Z,45.92
2018-03-24T05:26:45.601Z,45.78
2018-03-24T05:29:14.158Z,45.83
2018-03-24T05:31:41.925Z,48.47
2018-03-24T05:34:09.743Z,49.88
2018-03-24T05:36:37.512Z,50.75
2018-03-24T05:39:05.348Z,50.85
2018-03-24T05:41:33.175Z,50.25
2018-03-24T05:44:00.940Z,50.08
2018-03-24T05:46:28.711Z,48.58
2018-03-24T05:48:56.483Z,48.15
2018-03-24T05:51:24.242Z,46.83
2018-03-24T05:53:52.052Z,45.60
2018-03-24T05:56:19.859Z,44.70
2018-03-24T05:58:47.623Z,44.53
2018-03-24T06:01:15.489Z,43.50
2018-03-24T06:03:43.319Z,43.00
2018-03-24T06:06:11.102Z,42.90
2018-03-24T06:08:38.890Z,45.08
2018-03-24T06:11:06.659Z,44.33
2018-03-24T06:13:34.435Z,46.50
2018-03-24T06:16:02.993Z,44.83
2018-03-24T06:18:30.814Z,45.50
2018-03-24T06:20:58.590Z,45.35
2018-03-24T06:23:26.358Z,45.25
2018-03-24T06:25:54.112Z,44.60
2018-03-24T06:28:21.866Z,45.08
2018-03-24T06:31:07.516Z,43.53
2018-03-24T06:33:35.307Z,43.87
2018-03-24T06:36:03.122Z,43.80
2018-03-24T06:38:31.711Z,44.00
2018-03-24T06:40:59.537Z,44.03
2018-03-24T06:43:27.560Z,44.25
2018-03-24T06:45:56.131Z,43.38
2018-03-24T06:48:23.936Z,47.87
2018-03-24T06:50:51.703Z,47.65
2018-03-24T06:53:19.516Z,43.90
2018-03-24T06:55:47.285Z,43.65
2018-03-24T06:58:15.075Z,44.10
2018-03-24T07:00:43.699Z,46.00
2018-03-24T07:03:11.443Z,44.88
2018-03-24T07:05:39.214Z,45.90
2018-03-24T07:08:07.036Z,44.80
2018-03-24T07:10:34.852Z,44.15
2018-03-24T07:13:02.611Z,44.15
2018-03-24T07:15:30.379Z,45.53
2018-03-24T07:17:58.179Z,43.33
2018-03-24T07:20:25.951Z,45.00
2018-03-24T07:22:53.747Z,44.08
2018-03-24T07:25:22.331Z,44.60
2018-03-24T07:27:50.119Z,46.97
2018-03-24T07:30:17.991Z,45.38
2018-03-24T07:32:45.966Z,46.55
2018-03-24T07:35:13.750Z,47.72
2018-03-24T07:37:41.539Z,47.70
2018-03-24T07:40:10.121Z,48.67
2018-03-24T07:42:38.715Z,49.25
2018-03-24T07:45:07.400Z,50.42
2018-03-24T07:47:36.001Z,52.92
2018-03-24T07:50:03.936Z,55.65
2018-03-24T07:52:31.770Z,56.63
2018-03-24T07:54:59.563Z,54.47
2018-03-24T07:57:27.508Z,55.12
2018-03-24T07:59:55.356Z,52.47
2018-03-24T08:02:23.264Z,50.67
2018-03-24T08:04:51.127Z,48.05
2018-03-24T08:07:19.749Z,48.22
2018-03-24T08:09:47.737Z,47.30
2018-03-24T08:12:15.657Z,49.30
2018-03-24T08:14:44.274Z,46.42
2018-03-24T08:17:12.187Z,43.87
2018-03-24T08:19:40.086Z,48.08
2018-03-24T08:22:08.155Z,47.03
2018-03-24T08:24:36.060Z,47.42
2018-03-24T08:27:04.195Z,41.45
2018-03-24T08:29:32.172Z,42.55
2018-03-24T08:32:00.133Z,43.27
2018-03-24T08:34:28.814Z,43.80
2018-03-24T08:36:56.980Z,47.13
2018-03-24T08:39:25.923Z,44.33
2018-03-24T08:41:53.815Z,44.43
2018-03-24T08:44:21.759Z,49.42
2018-03-24T08:46:49.695Z,40.50
2018-03-24T08:49:17.489Z,43.80
2018-03-24T08:51:45.315Z,42.37
2018-03-24T08:54:13.470Z,45.17
2018-03-24T08:56:42.104Z,44.43
2018-03-24T08:59:10.004Z,43.40
2018-03-24T09:01:37.864Z,44.33
2018-03-24T09:04:06.109Z,44.10
2018-03-24T09:06:34.007Z,45.00
2018-03-24T09:09:01.973Z,45.37
2018-03-24T09:11:30.124Z,47.00
2018-03-24T09:13:58.127Z,50.17
2018-03-24T09:16:26.151Z,50.07
2018-03-24T09:18:54.319Z,51.13
2018-03-24T09:21:22.405Z,48.77
2018-03-24T09:23:50.300Z,51.13
2018-03-24T09:26:18.348Z,46.58
2018-03-24T09:28:46.758Z,45.90
2018-03-24T09:31:14.932Z,42.67
2018-03-24T09:33:42.885Z,41.70
2018-03-24T09:36:12.017Z,40.00
2018-03-24T09:38:40.750Z,39.00
2018-03-24T09:41:08.752Z,41.13
2018-03-24T09:43:36.936Z,41.80
2018-03-24T09:46:05.932Z,40.30
2018-03-24T09:48:34.554Z,41.30
2018-03-24T09:51:02.720Z,40.93
2018-03-24T09:53:30.763Z,44.63
2018-03-24T09:55:59.539Z,41.83
2018-03-24T09:58:28.177Z,41.27
2018-03-24T10:00:56.200Z,41.77
2018-03-24T10:03:24.826Z,41.33
2018-03-24T10:05:52.816Z,40.70
2018-03-24T10:08:21.202Z,38.15
2018-03-24T10:10:49.243Z,42.90
2018-03-24T10:13:17.276Z,38.87
2018-03-24T10:15:46.162Z,39.57
2018-03-24T10:18:16.048Z,39.77
2018-03-24T10:21:04.754Z,39.00
2018-03-24T10:26:43.975Z,40.03
2018-03-24T10:29:12.562Z,38.90
2018-03-24T10:31:41.191Z,42.13
2018-03-24T10:34:09.080Z,40.30
2018-03-24T10:36:37.089Z,40.53
2018-03-24T10:39:06.044Z,39.33
2018-03-24T10:41:34.988Z,40.40
2018-03-24T10:44:02.871Z,39.10
2018-03-24T10:46:30.833Z,39.10
2018-03-24T10:48:58.911Z,38.43
2018-03-24T10:51:26.980Z,42.47
2018-03-24T10:53:54.842Z,44.93
2018-03-24T10:56:22.690Z,44.15
2018-03-24T10:58:50.602Z,36.33
2018-03-24T11:01:24.278Z,39.63
2018-03-24T11:03:52.351Z,37.83
2018-03-24T11:06:20.523Z,36.27
2018-03-24T11:08:48.725Z,36.10
2018-03-24T11:11:16.770Z,37.93
2018-03-24T11:13:44.944Z,37.03
2018-03-24T11:16:12.809Z,35.50
2018-03-24T11:18:40.750Z,35.27
2018-03-24T11:21:08.726Z,34.17
2018-03-24T11:23:36.709Z,34.27
2018-03-24T11:26:04.715Z,33.43
2018-03-24T11:28:32.652Z,32.37
2018-03-24T11:31:00.526Z,31.30
2018-03-24T11:33:28.552Z,31.10
2018-03-24T11:35:57.173Z,30.27
2018-03-24T11:38:25.265Z,31.33
2018-03-24T11:40:53.110Z,31.77
2018-03-24T11:43:20.959Z,31.63
2018-03-24T11:45:48.819Z,32.00
2018-03-24T11:48:17.118Z,31.00
2018-03-24T11:50:46.213Z,32.73
2018-03-24T11:53:14.143Z,33.60
2018-03-24T11:55:42.864Z,34.10
2018-03-24T11:58:10.864Z,33.97
2018-03-24T12:00:39.182Z,35.40
2018-03-24T12:03:07.040Z,34.15
2018-03-24T12:05:35.731Z,35.40
2018-03-24T12:08:03.587Z,34.13
2018-03-24T12:10:32.215Z,35.73
2018-03-24T12:13:00.043Z,38.30
2018-03-24T12:15:27.873Z,37.03
2018-03-24T12:17:55.660Z,37.37
2018-03-24T12:20:24.217Z,38.00
2018-03-24T12:22:51.995Z,36.60
2018-03-24T12:25:20.604Z,36.90
2018-03-24T12:27:48.442Z,37.00
2018-03-24T12:30:16.317Z,37.20
2018-03-24T12:32:44.870Z,36.77
2018-03-24T12:35:12.719Z,37.20
2018-03-24T12:37:40.573Z,38.80
2018-03-24T12:40:08.352Z,39.13
2018-03-24T12:42:36.995Z,38.20
2018-03-24T12:45:04.856Z,37.23
2018-03-24T12:47:32.738Z,38.60
2018-03-24T12:50:00.616Z,37.00
2018-03-24T12:52:29.687Z,37.97
2018-03-24T12:54:57.767Z,38.07
2018-03-24T12:57:25.660Z,39.13
2018-03-24T12:59:53.536Z,36.87
2018-03-24T13:02:21.817Z,37.70
2018-03-24T13:04:49.623Z,35.30
2018-03-24T13:07:18.273Z,36.13
2018-03-24T13:09:47.057Z,36.23
2018-03-24T13:12:14.899Z,37.70
2018-03-24T13:14:42.748Z,37.17
2018-03-24T13:17:10.553Z,34.75
2018-03-24T13:19:38.475Z,37.20
2018-03-24T13:22:06.439Z,37.40
2018-03-24T13:24:34.239Z,34.50
2018-03-24T13:27:02.031Z,36.03
2018-03-24T13:29:29.883Z,37.63
2018-03-24T13:31:57.701Z,36.90
2018-03-24T13:34:25.475Z,33.70
2018-03-24T13:36:53.428Z,37.73
2018-03-24T13:39:21.333Z,37.53
2018-03-24T13:41:49.149Z,56.10
2018-03-24T13:44:17.666Z,43.70
2018-03-24T13:46:45.531Z,38.67
2018-03-24T13:49:13.395Z,41.43
2018-03-24T13:51:41.215Z,54.53
2018-03-24T13:54:09.895Z,47.13
2018-03-24T13:56:38.529Z,37.17
2018-03-24T13:59:06.394Z,39.97
2018-03-24T14:01:34.261Z,38.93
2018-03-24T14:04:02.061Z,40.10
2018-03-24T14:06:29.913Z,41.03
2018-03-24T14:08:57.744Z,39.90
2018-03-24T14:11:25.532Z,37.43
2018-03-24T14:13:53.321Z,37.97
2018-03-24T14:16:21.120Z,38.27
2018-03-24T14:18:48.908Z,39.37
2018-03-24T14:21:16.712Z,36.87
2018-03-24T14:23:44.602Z,38.55
2018-03-24T14:26:12.675Z,37.40
2018-03-24T14:28:41.552Z,38.67
2018-03-24T14:31:09.457Z,38.00
2018-03-24T14:33:37.430Z,37.43
2018-03-24T14:36:05.435Z,36.63
2018-03-24T14:38:34.805Z,41.75
2018-03-24T14:41:03.062Z,43.40
2018-03-24T14:43:30.875Z,37.87
2018-03-24T14:45:59.035Z,38.37
2018-03-24T14:48:26.988Z,37.63
2018-03-24T14:50:54.998Z,38.47
2018-03-24T14:53:23.451Z,37.47
2018-03-24T14:55:51.387Z,38.22
2018-03-24T14:58:19.442Z,37.22
2018-03-24T15:00:48.312Z,37.07
2018-03-24T15:03:17.614Z,46.50
2018-03-24T15:05:46.448Z,39.08
2018-03-24T15:08:14.237Z,37.85
2018-03-24T15:10:42.059Z,40.08
2018-03-24T15:13:09.877Z,38.40
2018-03-24T15:15:37.821Z,38.63
2018-03-24T15:18:05.614Z,37.73
2018-03-24T15:20:33.393Z,40.00
2018-03-24T15:23:02.017Z,38.45
2018-03-24T15:25:29.856Z,37.93
2018-03-24T15:27:58.095Z,37.85
2018-03-24T15:30:37.797Z,37.83
2018-03-24T15:33:17.396Z,37.80
2018-03-24T15:35:57.822Z,39.25
2018-03-24T15:38:25.681Z,37.45
2018-03-24T15:40:53.493Z,37.90
2018-03-24T15:43:22.053Z,37.55
2018-03-24T15:45:49.976Z,37.92
2018-03-24T15:48:17.812Z,37.85
2018-03-24T15:50:46.471Z,38.92
2018-03-24T15:53:14.817Z,38.55
2018-03-24T15:55:42.772Z,38.53
2018-03-24T15:58:10.591Z,39.35
2018-03-24T16:00:39.170Z,39.55
2018-03-24T16:03:07.091Z,39.08
2018-03-24T16:05:34.935Z,38.47
2018-03-24T16:08:02.731Z,38.85
2018-03-24T16:10:30.647Z,38.15
2018-03-24T16:12:58.502Z,39.33
2018-03-24T16:15:26.307Z,38.75
2018-03-24T16:17:54.240Z,40.08
2018-03-24T16:20:22.868Z,38.92
2018-03-24T16:22:50.681Z,40.87
2018-03-24T16:25:18.500Z,38.35
2018-03-24T16:27:46.380Z,40.53
2018-03-24T16:30:14.173Z,39.17
2018-03-24T16:32:42.712Z,39.30
2018-03-24T16:35:10.720Z,39.17
2018-03-24T16:37:38.598Z,39.15
2018-03-24T16:40:06.555Z,39.47
2018-03-24T16:42:34.360Z,39.17
2018-03-24T16:45:02.256Z,39.88
2018-03-24T16:47:30.869Z,40.47
2018-03-24T16:49:58.702Z,45.10
2018-03-24T16:52:26.606Z,46.10
2018-03-24T16:54:54.454Z,44.75
2018-03-24T16:57:22.234Z,45.30
2018-03-24T16:59:50.007Z,42.55
2018-03-24T17:02:17.818Z,41.25
2018-03-24T17:04:45.646Z,41.55
2018-03-24T17:07:13.494Z,41.80
2018-03-24T17:09:41.623Z,41.75
2018-03-24T17:12:09.444Z,45.38
2018-03-24T17:14:37.222Z,48.67
2018-03-24T17:17:05.791Z,47.88
2018-03-24T17:19:33.650Z,47.80
2018-03-24T17:22:01.444Z,48.13
2018-03-24T17:24:29.271Z,46.67
2018-03-24T17:26:57.161Z,47.67
2018-03-24T17:29:25.692Z,48.53
2018-03-24T17:31:53.458Z,50.63
2018-03-24T17:34:21.374Z,49.58
2018-03-24T17:36:49.935Z,49.08
2018-03-24T17:39:17.703Z,48.97
2018-03-24T17:41:45.682Z,48.13
2018-03-24T17:44:13.514Z,46.72
2018-03-24T17:46:41.323Z,47.90
2018-03-24T17:49:09.896Z,49.80
2018-03-24T17:51:37.684Z,48.17
2018-03-24T17:54:06.369Z,48.67
2018-03-24T17:56:34.938Z,46.20
2018-03-24T17:59:03.594Z,45.20
2018-03-24T18:01:31.640Z,45.90
2018-03-24T18:03:59.531Z,45.22
2018-03-24T18:06:27.376Z,46.35
2018-03-24T18:08:55.259Z,45.80
2018-03-24T18:11:23.105Z,45.25
2018-03-24T18:13:50.970Z,44.67
2018-03-24T18:16:18.943Z,45.95
2018-03-24T18:18:46.834Z,45.65
2018-03-24T18:21:14.755Z,47.78
2018-03-24T18:23:42.719Z,42.75
2018-03-24T18:26:10.598Z,46.77
2018-03-24T18:28:38.529Z,47.83
2018-03-24T18:31:07.220Z,50.15
2018-03-24T18:33:35.849Z,50.80
2018-03-24T18:36:03.758Z,53.90
2018-03-24T18:38:32.486Z,55.40
2018-03-24T18:41:00.612Z,53.83
2018-03-24T18:43:28.693Z,53.28
2018-03-24T18:45:57.273Z,54.70
2018-03-24T18:48:25.868Z,57.15
2018-03-24T18:50:54.471Z,61.15
2018-03-24T18:53:22.374Z,57.13
2018-03-24T18:55:50.190Z,60.65
2018-03-24T18:58:18.134Z,66.57
2018-03-24T19:00:46.779Z,78.03
2018-03-24T19:03:14.758Z,74.80
2018-03-24T19:05:42.631Z,78.28
2018-03-24T19:08:10.519Z,78.62
2018-03-24T19:10:39.179Z,66.85
2018-03-24T19:13:07.119Z,62.03
2018-03-24T19:15:35.030Z,59.85
2018-03-24T19:18:02.956Z,69.30
2018-03-24T19:20:30.820Z,76.57
2018-03-24T19:22:58.774Z,82.68
2018-03-24T19:25:26.640Z,84.07
2018-03-24T19:27:54.521Z,75.45
2018-03-24T19:30:22.551Z,75.70
2018-03-24T19:32:51.163Z,65.60
2018-03-24T19:35:19.087Z,61.50
2018-03-24T19:37:47.041Z,60.25
2018-03-24T19:40:15.079Z,58.53
2018-03-24T19:42:43.081Z,58.67
2018-03-24T19:45:12.586Z,56.30
2018-03-24T19:47:40.523Z,56.40
2018-03-24T19:50:08.734Z,58.03
2018-03-24T19:52:36.725Z,57.88
2018-03-24T19:55:05.568Z,58.60
2018-03-24T19:57:33.773Z,59.40
2018-03-24T20:00:01.700Z,61.80
2018-03-24T20:02:29.811Z,66.12
2018-03-24T20:04:57.805Z,62.33
2018-03-24T20:07:25.848Z,62.85
2018-03-24T20:09:54.841Z,62.67
2018-03-24T20:12:22.702Z,59.92
2018-03-24T20:14:50.674Z,59.33
2018-03-24T20:17:21.752Z,57.85
2018-03-24T20:19:49.612Z,59.53
2018-03-24T20:22:17.443Z,61.58
2018-03-24T20:24:45.404Z,60.83
2018-03-24T20:27:13.389Z,62.30
2018-03-24T20:29:41.284Z,62.08
2018-03-24T20:32:09.100Z,63.85
2018-03-24T20:34:36.978Z,59.63
2018-03-24T20:37:05.027Z,62.80
2018-03-24T20:39:32.845Z,66.72
2018-03-24T20:42:01.508Z,64.68
2018-03-24T20:44:29.377Z,65.82
2018-03-24T20:46:57.950Z,63.50
2018-03-24T20:49:25.908Z,61.70
2018-03-24T20:51:53.849Z,65.75
2018-03-24T20:54:21.716Z,66.53
2018-03-24T20:56:49.588Z,64.95
2018-03-24T20:59:17.416Z,62.65
2018-03-24T21:01:45.358Z,59.50
2018-03-24T21:04:14.045Z,57.53
2018-03-24T21:06:42.646Z,56.22
2018-03-24T21:09:11.339Z,53.22
2018-03-24T21:11:39.382Z,54.50
2018-03-24T21:14:08.069Z,53.67
2018-03-24T21:16:36.723Z,53.63
2018-03-24T21:19:04.575Z,53.00
2018-03-24T21:21:32.390Z,52.35
2018-03-24T21:24:01.155Z,54.45
2018-03-24T21:26:29.019Z,52.28
2018-03-24T21:28:56.987Z,53.80
2018-03-24T21:31:24.805Z,54.65
2018-03-24T21:33:53.414Z,57.03
2018-03-24T21:36:21.185Z,54.40
2018-03-24T21:38:50.011Z,56.28
2018-03-24T21:41:18.661Z,52.47
2018-03-24T21:43:46.507Z,53.47
2018-03-24T21:46:14.444Z,54.55
2018-03-24T21:48:42.403Z,56.20
2018-03-24T21:51:11.245Z,57.75
2018-03-24T21:53:39.258Z,55.80
2018-03-24T21:56:08.038Z,56.40
2018-03-24T21:58:36.760Z,55.63
2018-03-24T22:01:05.576Z,54.00
2018-03-24T22:03:33.382Z,53.80
2018-03-24T22:06:02.064Z,56.15
2018-03-24T22:08:30.955Z,55.92
2018-03-24T22:10:59.756Z,55.65
2018-03-24T22:13:28.497Z,55.90
2018-03-24T22:15:56.397Z,55.05
2018-03-24T22:18:25.150Z,55.50
2018-03-24T22:20:53.085Z,54.55
2018-03-24T22:23:20.999Z,55.05
2018-03-24T22:25:50.549Z,55.15
2018-03-24T22:28:18.581Z,156.75
2018-03-24T22:30:46.634Z,59.38
2018-03-24T22:33:14.556Z,59.08
2018-03-24T22:35:42.632Z,58.35
2018-03-24T22:38:10.573Z,59.08
2018-03-24T22:40:38.444Z,57.42
2018-03-24T22:43:07.275Z,59.42
2018-03-24T22:45:35.269Z,58.10
2018-03-24T22:48:03.359Z,60.90
2018-03-24T22:50:31.313Z,62.20
2018-03-24T22:52:59.179Z,62.22
2018-03-24T22:55:27.117Z,62.67
2018-03-24T22:57:56.102Z,57.95
2018-03-24T23:00:24.322Z,56.92
2018-03-24T23:02:53.074Z,58.22
2018-03-24T23:05:21.104Z,57.65
2018-03-24T23:07:49.080Z,60.75
2018-03-24T23:10:16.977Z,58.95
2018-03-24T23:12:44.879Z,61.65
2018-03-24T23:15:12.748Z,64.25
2018-03-24T23:17:40.619Z,64.95
2018-03-24T23:20:09.364Z,59.97
2018-03-24T23:22:37.341Z,56.85
2018-03-24T23:25:05.319Z,54.80
2018-03-24T23:27:33.210Z,57.25
2018-03-24T23:30:01.369Z,56.17
2018-03-24T23:32:29.340Z,53.67
2018-03-24T23:34:57.308Z,56.05
2018-03-24T23:37:25.354Z,52.80
2018-03-24T23:39:53.239Z,52.90
2018-03-24T23:42:21.128Z,53.35
2018-03-24T23:44:49.188Z,51.58
2018-03-24T23:47:18.077Z,51.80
2018-03-24T23:49:45.953Z,52.05
2018-03-24T23:52:14.604Z,50.95
2018-03-24T23:54:42.556Z,51.72
2018-03-24T23:57:10.554Z,53.13
2018-03-24T23:59:38.749Z,51.75
